Time;durP1;ratioP1;P1;durP2;ratioP2;P2;SDS_P1;SDS_P2;PMS_P1;PMS_P2;Temp;Humidity;BMP_temperature;BMP_pressure;BME280_temperature;BME280_humidity;BME280_pressure;Samples;Min_cycle;Max_cycle;Signal;HPM_P1;HPM_P2
2022/12/31 00:01:22;;;;;;;86.10;82.03;;;13.20;99.90;;;;;;5042998;28;20175;-78
2022/12/31 00:03:48;;;;;;;85.77;81.77;;;13.20;99.90;;;;;;5040971;28;20597;-79
2022/12/31 00:06:13;;;;;;;81.10;77.30;;;13.20;99.90;;;;;;5057900;28;20206;-80
2022/12/31 00:08:39;;;;;;;76.50;72.90;;;13.20;99.90;;;;;;5056318;28;20186;-79
2022/12/31 00:11:05;;;;;;;69.20;65.87;;;13.30;99.90;;;;;;5065833;28;20185;-79
2022/12/31 00:13:31;;;;;;;79.87;76.07;;;13.20;99.90;;;;;;5066471;28;20304;-79
2022/12/31 00:16:12;;;;;;;78.33;74.60;;;13.20;99.90;;;;;;5059054;28;20547;-80
2022/12/31 00:18:41;;;;;;;72.47;69.07;;;13.30;99.90;;;;;;5076157;28;20300;-80
2022/12/31 00:21:08;;;;;;;73.77;70.03;;;13.30;99.90;;;;;;5065948;28;20183;-80
2022/12/31 00:23:35;;;;;;;79.27;75.53;;;13.30;99.90;;;;;;5038718;28;20806;-79
2022/12/31 00:26:20;;;;;;;71.07;67.73;;;13.40;99.90;;;;;;5059787;28;20245;-78
2022/12/31 00:28:47;;;;;;;76.67;73.07;;;13.40;99.90;;;;;;5047711;28;20205;-79
2022/12/31 00:31:24;;;;;;;56.87;54.27;;;13.40;99.90;;;;;;5068560;28;20822;-80
2022/12/31 00:33:50;;;;;;;46.77;44.37;;;13.40;99.90;;;;;;5076608;28;20205;-79
2022/12/31 00:36:17;;;;;;;24.97;23.87;;;13.50;99.90;;;;;;5058078;28;20209;-80
2022/12/31 00:38:45;;;;;;;22.53;21.37;;;13.50;99.90;;;;;;5075836;28;20576;-80
2022/12/31 00:41:12;;;;;;;7.60;7.30;;;13.50;99.90;;;;;;5057665;28;20182;-79
2022/12/31 00:43:38;;;;;;;4.93;4.83;;;13.60;99.90;;;;;;5057790;28;20216;-79
2022/12/31 00:46:05;;;;;;;5.53;5.33;;;13.60;99.90;;;;;;5076003;28;20174;-80
2022/12/31 00:48:31;;;;;;;5.07;4.97;;;13.60;99.90;;;;;;5075185;28;20844;-79
2022/12/31 00:50:58;;;;;;;4.50;4.40;;;13.70;99.90;;;;;;5070334;28;20194;-79
2022/12/31 00:53:24;;;;;;;5.20;5.00;;;13.80;99.90;;;;;;5041480;28;20599;-79
2022/12/31 00:55:50;;;;;;;7.23;6.37;;;13.70;99.90;;;;;;5037682;28;20647;-80
2022/12/31 00:58:16;;;;;;;7.90;7.60;;;13.80;99.90;;;;;;5055052;28;20286;-79
2022/12/31 01:00:42;;;;;;;9.33;8.93;;;13.80;99.90;;;;;;5044414;28;20181;-80
2022/12/31 01:03:08;;;;;;;8.60;8.30;;;13.80;99.90;;;;;;5056840;28;20258;-79
2022/12/31 01:05:36;;;;;;;10.60;10.00;;;13.80;99.90;;;;;;5075988;28;20205;-79
2022/12/31 01:08:02;;;;;;;9.57;9.17;;;13.90;99.90;;;;;;5056649;28;20186;-80
2022/12/31 01:13:12;;;;;;;10.17;9.77;;;13.90;99.90;;;;;;5054598;28;20702;-80
2022/12/31 01:15:38;;;;;;;9.17;8.77;;;13.80;99.90;;;;;;5042164;28;20198;-79
2022/12/31 01:18:06;;;;;;;8.13;7.83;;;13.90;99.90;;;;;;5062394;28;20186;-79
2022/12/31 01:20:38;;;;;;;7.57;7.27;;;14.00;99.90;;;;;;5064477;28;20193;-79
2022/12/31 01:23:05;;;;;;;6.17;5.97;;;13.90;99.90;;;;;;5085283;28;20258;-79
2022/12/31 01:25:36;;;;;;;6.63;6.43;;;14.00;99.90;;;;;;5086873;28;20239;-79
2022/12/31 01:28:03;;;;;;;5.77;5.57;;;14.00;99.90;;;;;;5065916;28;20273;-79
2022/12/31 01:30:29;;;;;;;4.77;4.57;;;14.00;99.90;;;;;;5074078;28;20182;-79
2022/12/31 01:32:55;;;;;;;4.73;4.47;;;13.90;99.90;;;;;;5056611;28;20182;-80
2022/12/31 01:35:21;;;;;;;4.73;4.63;;;14.00;99.90;;;;;;5058339;28;20231;-79
2022/12/31 01:37:46;;;;;;;4.47;4.37;;;13.90;99.90;;;;;;5056200;28;20205;-80
2022/12/31 01:40:12;;;;;;;4.73;4.53;;;14.00;99.90;;;;;;5057345;28;20764;-80
2022/12/31 01:42:38;;;;;;;4.40;4.20;;;14.00;99.90;;;;;;5066773;28;20260;-79
2022/12/31 01:45:09;;;;;;;4.13;3.93;;;14.00;99.90;;;;;;5074941;28;20209;-79
2022/12/31 01:47:48;;;;;;;4.90;4.60;;;13.90;99.90;;;;;;5075014;28;20188;-79
2022/12/31 01:50:20;;;;;;;4.37;4.27;;;13.90;99.90;;;;;;5079624;28;20185;-79
2022/12/31 01:52:59;;;;;;;4.73;4.63;;;13.90;99.90;;;;;;5038091;28;20650;-80
2022/12/31 01:55:29;;;;;;;4.80;4.57;;;13.80;99.90;;;;;;5037333;28;20201;-79
2022/12/31 01:58:00;;;;;;;6.10;5.90;;;13.80;99.90;;;;;;5036318;28;20178;-79
2022/12/31 02:00:25;;;;;;;5.87;5.67;;;13.80;99.90;;;;;;5039500;28;20183;-80
2022/12/31 02:02:52;;;;;;;7.03;6.63;;;13.70;99.90;;;;;;5075839;28;20184;-79
2022/12/31 02:05:31;;;;;;;7.33;7.03;;;13.70;99.90;;;;;;5074616;28;20296;-79
2022/12/31 02:07:58;;;;;;;7.60;7.30;;;13.60;99.90;;;;;;5055650;28;20181;-79
2022/12/31 02:10:24;;;;;;;11.97;11.47;;;13.50;99.90;;;;;;5054552;28;20186;-79
2022/12/31 02:12:51;;;;;;;15.00;14.23;;;13.40;99.90;;;;;;5042273;28;20655;-79
2022/12/31 02:15:21;;;;;;;15.47;14.77;;;13.30;99.90;;;;;;5056500;28;20233;-79
2022/12/31 02:17:51;;;;;;;7.03;6.80;;;13.20;99.90;;;;;;5055429;28;20204;-79
2022/12/31 02:20:31;;;;;;;5.70;5.40;;;13.20;99.90;;;;;;5073549;28;20256;-79
2022/12/31 02:23:23;;;;;;;5.03;4.87;;;13.10;99.90;;;;;;5036817;28;20210;-79
2022/12/31 02:25:58;;;;;;;5.50;5.30;;;13.00;99.90;;;;;;5036275;28;20205;-80
2022/12/31 02:28:58;;;;;;;5.40;5.20;;;13.00;99.90;;;;;;5035025;28;20193;-79
2022/12/31 02:31:31;;;;;;;5.13;4.93;;;13.10;99.90;;;;;;5045915;28;20189;-80
2022/12/31 02:34:03;;;;;;;5.00;4.80;;;13.00;99.90;;;;;;5061687;28;20209;-78
2022/12/31 02:36:32;;;;;;;5.23;5.03;;;13.00;99.90;;;;;;5079326;28;20185;-79
2022/12/31 02:39:01;;;;;;;5.33;5.03;;;13.00;99.90;;;;;;5074598;28;20200;-80
2022/12/31 02:44:25;;;;;;;4.73;4.53;;;13.00;99.90;;;;;;5090070;28;20217;-80
2022/12/31 02:47:19;;;;;;;5.37;5.07;;;13.00;99.90;;;;;;5065218;28;20188;-80
2022/12/31 02:49:53;;;;;;;7.80;7.50;;;13.10;99.90;;;;;;5062767;28;20318;-80
2022/12/31 02:52:29;;;;;;;4.83;4.63;;;13.20;99.90;;;;;;5064698;28;20177;-79
2022/12/31 02:55:16;;;;;;;4.83;4.63;;;13.30;99.90;;;;;;5082443;28;20209;-80
2022/12/31 02:57:54;;;;;;;4.63;4.53;;;13.30;99.90;;;;;;5062947;28;20247;-79
2022/12/31 03:03:07;;;;;;;13.63;13.03;;;13.40;99.90;;;;;;5053681;28;20225;-79
2022/12/31 03:05:43;;;;;;;14.50;13.90;;;13.40;99.90;;;;;;5054488;28;20411;-80
2022/12/31 03:08:09;;;;;;;14.60;13.80;;;13.40;99.90;;;;;;5035961;28;20182;-79
2022/12/31 03:10:35;;;;;;;12.17;11.67;;;13.30;99.90;;;;;;5070209;28;20181;-80
2022/12/31 03:13:02;;;;;;;15.70;14.80;;;13.30;99.90;;;;;;5056370;28;20278;-80
2022/12/31 03:15:30;;;;;;;15.83;15.10;;;13.30;99.90;;;;;;5056617;28;20185;-80
2022/12/31 03:18:15;;;;;;;16.23;15.53;;;13.30;99.90;;;;;;5087180;28;20185;-80
2022/12/31 03:23:40;;;;;;;15.47;14.80;;;13.20;99.90;;;;;;5057461;28;20217;-81
2022/12/31 03:26:11;;;;;;;13.57;12.97;;;13.30;99.90;;;;;;5036633;28;20234;-80
2022/12/31 03:28:42;;;;;;;13.10;12.50;;;13.30;99.90;;;;;;5052494;28;20190;-79
2022/12/31 03:31:08;;;;;;;13.23;12.20;;;13.30;99.90;;;;;;5051583;28;20201;-80
2022/12/31 03:33:39;;;;;;;12.40;11.80;;;13.30;99.90;;;;;;5059044;28;20198;-79
2022/12/31 03:36:08;;;;;;;8.80;8.50;;;13.40;99.90;;;;;;5048624;28;20186;-80
2022/12/31 03:38:34;;;;;;;9.17;8.67;;;13.40;99.90;;;;;;5045114;28;20196;-80
2022/12/31 03:41:00;;;;;;;10.43;9.73;;;13.40;99.90;;;;;;5059027;28;20182;-79
2022/12/31 03:43:26;;;;;;;8.07;7.77;;;13.40;99.90;;;;;;5041240;28;20205;-80
2022/12/31 03:45:53;;;;;;;7.63;7.30;;;13.40;99.90;;;;;;5040456;28;20186;-80
2022/12/31 03:48:21;;;;;;;9.03;8.57;;;13.50;99.90;;;;;;5038946;28;20257;-79
2022/12/31 03:50:47;;;;;;;8.73;8.33;;;13.50;99.90;;;;;;5056010;28;20549;-79
2022/12/31 03:53:13;;;;;;;7.57;7.27;;;13.60;99.90;;;;;;5077332;28;20227;-79
2022/12/31 03:55:39;;;;;;;7.53;7.13;;;13.70;99.90;;;;;;5067301;28;20169;-81
2022/12/31 03:58:05;;;;;;;5.37;5.20;;;13.70;99.90;;;;;;5065411;28;20198;-80
2022/12/31 04:00:31;;;;;;;5.70;5.50;;;13.80;99.90;;;;;;5061903;28;20178;-80
2022/12/31 04:02:56;;;;;;;5.33;5.13;;;13.90;99.90;;;;;;5060008;28;20220;-79
2022/12/31 04:05:22;;;;;;;5.27;5.10;;;14.00;99.90;;;;;;5078024;28;20724;-79
2022/12/31 04:07:50;;;;;;;5.70;5.50;;;14.00;99.90;;;;;;5078177;28;20186;-79
2022/12/31 04:10:18;;;;;;;5.53;5.30;;;14.00;99.90;;;;;;5078149;28;20301;-79
2022/12/31 04:12:44;;;;;;;5.60;5.40;;;14.00;99.90;;;;;;5062641;28;20252;-80
2022/12/31 04:15:15;;;;;;;6.27;5.97;;;14.10;99.90;;;;;;5065630;28;20213;-79
2022/12/31 04:17:41;;;;;;;6.57;6.27;;;14.20;99.90;;;;;;5050011;28;20218;-80
2022/12/31 04:20:07;;;;;;;5.77;5.57;;;14.30;99.90;;;;;;5038741;28;20236;-79
2022/12/31 04:22:33;;;;;;;5.13;4.93;;;14.30;99.90;;;;;;5057000;28;20187;-79
2022/12/31 04:24:58;;;;;;;4.67;4.37;;;14.40;99.90;;;;;;5050480;28;20217;-79
2022/12/31 04:27:24;;;;;;;5.37;5.03;;;14.40;99.90;;;;;;5058332;28;20680;-79
2022/12/31 04:29:50;;;;;;;5.07;4.93;;;14.40;99.90;;;;;;5057997;28;20174;-79
2022/12/31 04:32:16;;;;;;;5.30;5.10;;;14.40;99.90;;;;;;5053857;28;20189;-80
2022/12/31 04:34:41;;;;;;;5.33;5.07;;;14.40;99.90;;;;;;5067356;28;20209;-80
2022/12/31 04:37:07;;;;;;;11.00;10.57;;;14.50;99.90;;;;;;5059940;28;20272;-80
2022/12/31 04:39:33;;;;;;;20.40;19.47;;;14.50;99.90;;;;;;5076751;28;20226;-80
2022/12/31 04:41:59;;;;;;;28.57;27.13;;;14.50;99.90;;;;;;5075850;28;20186;-80
2022/12/31 04:44:25;;;;;;;41.23;39.33;;;14.60;99.90;;;;;;5075762;28;20297;-81
2022/12/31 04:46:51;;;;;;;48.97;46.50;;;14.70;99.90;;;;;;5056858;28;20170;-79
2022/12/31 04:49:17;;;;;;;46.43;44.23;;;14.70;99.90;;;;;;5058695;28;20181;-79
2022/12/31 04:51:42;;;;;;;57.03;54.37;;;14.70;99.90;;;;;;5058878;28;20197;-79
2022/12/31 04:54:08;;;;;;;54.13;51.60;;;14.70;99.90;;;;;;5075982;28;20205;-79
2022/12/31 04:56:35;;;;;;;56.20;53.60;;;14.80;99.90;;;;;;5075741;28;20280;-79
2022/12/31 04:59:02;;;;;;;59.50;56.70;;;14.80;99.90;;;;;;5057434;28;20182;-78
2022/12/31 05:01:28;;;;;;;58.57;55.80;;;14.70;99.90;;;;;;5055074;28;20177;-79
2022/12/31 05:03:54;;;;;;;52.03;49.53;;;14.70;99.90;;;;;;5072994;23;20318;-76
2022/12/31 05:06:22;;;;;;;54.03;51.53;;;14.80;99.90;;;;;;5052753;28;20550;-75
2022/12/31 05:08:49;;;;;;;51.90;49.40;;;14.90;99.90;;;;;;5051670;28;20218;-76
2022/12/31 05:11:15;;;;;;;48.00;45.57;;;15.00;99.90;;;;;;5052609;28;20182;-75
2022/12/31 05:13:41;;;;;;;50.60;48.03;;;15.00;99.90;;;;;;5052725;28;20183;-76
2022/12/31 05:16:08;;;;;;;53.73;51.23;;;14.90;99.90;;;;;;5052357;28;20205;-75
2022/12/31 05:18:35;;;;;;;55.37;52.77;;;14.90;99.90;;;;;;5033951;28;20182;-75
2022/12/31 05:21:00;;;;;;;56.10;53.50;;;14.80;99.90;;;;;;5034923;28;20274;-75
2022/12/31 05:23:27;;;;;;;64.30;61.27;;;14.80;99.90;;;;;;5052106;28;20265;-77
2022/12/31 05:25:52;;;;;;;59.40;56.57;;;14.70;99.90;;;;;;5034975;28;20174;-77
2022/12/31 05:28:19;;;;;;;57.07;54.40;;;14.70;99.90;;;;;;5033783;28;20197;-76
2022/12/31 05:30:48;;;;;;;49.10;46.80;;;14.60;99.90;;;;;;5034289;28;20205;-77
2022/12/31 05:33:14;;;;;;;24.13;23.10;;;14.60;99.90;;;;;;5034240;28;20182;-77
2022/12/31 05:35:40;;;;;;;25.90;24.70;;;14.70;99.90;;;;;;5034624;28;20649;-77
2022/12/31 05:38:07;;;;;;;17.60;16.83;;;14.70;99.90;;;;;;5051422;28;20224;-77
2022/12/31 05:40:32;;;;;;;9.57;9.13;;;14.70;99.90;;;;;;5052109;28;20273;-77
2022/12/31 05:42:58;;;;;;;6.73;6.53;;;14.70;99.90;;;;;;5034469;28;20683;-77
2022/12/31 05:45:24;;;;;;;5.97;5.57;;;14.70;99.90;;;;;;5033939;28;20206;-77
2022/12/31 05:47:50;;;;;;;5.40;5.20;;;14.70;99.90;;;;;;5051422;28;20572;-77
2022/12/31 05:50:16;;;;;;;4.40;4.20;;;14.80;99.90;;;;;;5052062;28;20224;-77
2022/12/31 05:52:43;;;;;;;7.47;7.17;;;14.80;99.90;;;;;;5034977;28;20664;-78
2022/12/31 05:55:10;;;;;;;7.90;7.60;;;14.90;99.90;;;;;;5034667;28;20598;-77
2022/12/31 05:57:36;;;;;;;11.33;10.63;;;14.90;99.90;;;;;;5050888;28;20671;-77
2022/12/31 06:00:04;;;;;;;14.53;13.90;;;14.90;99.90;;;;;;5051481;28;20189;-77
2022/12/31 06:02:30;;;;;;;15.13;14.43;;;14.90;99.90;;;;;;5034127;28;20189;-77
2022/12/31 06:04:56;;;;;;;16.03;15.37;;;14.90;99.90;;;;;;5033773;28;20305;-77
2022/12/31 06:07:22;;;;;;;20.17;19.30;;;14.90;99.90;;;;;;5032956;28;20224;-77
2022/12/31 06:09:48;;;;;;;27.50;26.27;;;14.90;99.90;;;;;;5051441;28;20193;-76
2022/12/31 06:12:14;;;;;;;9.93;9.53;;;14.90;99.90;;;;;;5033574;28;20610;-76
2022/12/31 06:14:39;;;;;;;8.83;8.53;;;14.90;99.90;;;;;;5051346;28;20206;-77
2022/12/31 06:17:05;;;;;;;6.20;5.90;;;14.80;99.90;;;;;;5051015;28;20189;-77
2022/12/31 06:19:31;;;;;;;4.70;4.60;;;14.80;99.90;;;;;;5051735;28;20182;-76
2022/12/31 06:21:57;;;;;;;4.27;4.17;;;14.80;99.90;;;;;;5051162;28;20236;-77
2022/12/31 06:24:22;;;;;;;3.80;3.70;;;14.80;99.90;;;;;;5051273;28;20210;-77
2022/12/31 06:26:48;;;;;;;4.27;4.07;;;14.80;99.90;;;;;;5050474;28;20182;-77
2022/12/31 06:29:14;;;;;;;3.67;3.57;;;14.70;99.90;;;;;;5033555;28;20188;-77
2022/12/31 06:31:40;;;;;;;3.73;3.63;;;14.70;99.90;;;;;;5033851;28;20181;-77
2022/12/31 06:34:07;;;;;;;4.10;4.00;;;14.70;99.90;;;;;;5051219;28;20202;-76
2022/12/31 06:36:32;;;;;;;4.20;4.00;;;14.70;99.90;;;;;;5051375;28;20186;-77
2022/12/31 06:38:58;;;;;;;4.20;4.00;;;14.70;99.90;;;;;;5050457;28;20184;-76
2022/12/31 06:41:24;;;;;;;4.30;4.13;;;14.70;99.90;;;;;;5050643;28;20278;-76
2022/12/31 06:43:50;;;;;;;4.17;4.07;;;14.70;99.90;;;;;;5050992;28;20287;-76
2022/12/31 06:46:17;;;;;;;4.57;4.37;;;14.60;99.90;;;;;;5033591;28;20178;-76
2022/12/31 06:48:43;;;;;;;5.00;4.73;;;14.60;99.90;;;;;;5053815;28;20174;-77
2022/12/31 06:51:18;;;;;;;5.43;5.10;;;14.60;99.90;;;;;;5044729;28;20191;-78
2022/12/31 06:53:46;;;;;;;4.97;4.77;;;14.60;99.90;;;;;;5046577;28;20203;-77
2022/12/31 06:56:24;;;;;;;5.07;4.87;;;14.60;99.90;;;;;;5055857;28;20178;-78
2022/12/31 06:58:50;;;;;;;5.77;5.57;;;14.60;99.90;;;;;;5051672;28;20182;-77
2022/12/31 07:01:40;;;;;;;4.50;4.40;;;14.70;99.90;;;;;;5052614;28;20763;-77
2022/12/31 07:04:42;;;;;;;5.00;4.83;;;14.70;99.90;;;;;;5050714;28;20236;-77
2022/12/31 07:07:31;;;;;;;5.97;5.77;;;14.70;99.90;;;;;;5060495;28;20212;-77
2022/12/31 07:10:15;;;;;;;12.23;11.73;;;14.70;99.90;;;;;;5055385;28;20178;-77
2022/12/31 07:13:05;;;;;;;22.57;21.57;;;14.70;99.90;;;;;;5049967;28;20563;-77
2022/12/31 07:16:08;;;;;;;24.20;23.10;;;14.70;99.90;;;;;;5050653;28;20301;-77
2022/12/31 07:19:02;;;;;;;27.33;26.13;;;14.70;99.90;;;;;;5050587;28;20207;-73
2022/12/31 07:21:37;;;;;;;39.07;37.27;;;14.70;99.90;;;;;;5021029;28;20277;-70
2022/12/31 07:24:06;;;;;;;46.33;44.17;;;14.70;99.90;;;;;;5011946;28;20210;-71
2022/12/31 07:26:55;;;;;;;58.80;56.03;;;14.70;99.90;;;;;;5044992;28;20186;-76
2022/12/31 07:29:39;;;;;;;57.50;54.70;;;14.70;99.90;;;;;;5049575;28;20556;-77
2022/12/31 07:32:37;;;;;;;58.90;56.07;;;14.70;99.90;;;;;;5048992;28;20178;-76
2022/12/31 07:36:00;;;;;;;65.00;61.83;;;14.70;99.90;;;;;;5049715;28;20198;-76
2022/12/31 07:38:48;;;;;;;47.00;44.77;;;14.80;99.90;;;;;;4951710;28;20189;-76
2022/12/31 07:41:35;;;;;;;51.93;49.50;;;14.90;99.90;;;;;;4967928;28;20284;-76
2022/12/31 07:44:10;;;;;;;52.93;50.40;;;15.00;99.90;;;;;;5035409;28;20301;-76
2022/12/31 07:46:49;;;;;;;44.30;42.13;;;15.10;99.90;;;;;;5031512;28;20552;-76
2022/12/31 07:49:15;;;;;;;38.60;36.77;;;15.20;99.90;;;;;;5049836;28;20293;-76
2022/12/31 07:51:41;;;;;;;35.50;32.90;;;15.20;99.90;;;;;;5031986;28;20261;-76
2022/12/31 07:54:07;;;;;;;30.10;28.73;;;15.20;99.90;;;;;;5048891;28;20206;-76
2022/12/31 07:56:33;;;;;;;20.23;19.33;;;15.30;99.90;;;;;;5049864;28;20278;-76
2022/12/31 07:59:12;;;;;;;19.10;18.27;;;15.20;99.90;;;;;;5048999;28;20186;-76
2022/12/31 08:01:56;;;;;;;16.80;16.10;;;15.20;99.90;;;;;;5031587;28;20186;-76
2022/12/31 08:04:40;;;;;;;14.97;14.27;;;15.30;99.90;;;;;;5048323;28;20206;-76
2022/12/31 08:07:12;;;;;;;10.67;10.17;;;15.40;99.90;;;;;;5029766;28;20186;-73
2022/12/31 08:09:57;;;;;;;10.40;10.00;;;15.40;99.90;;;;;;5048520;28;20175;-75
2022/12/31 08:12:24;;;;;;;6.20;6.00;;;15.50;99.90;;;;;;5032128;28;20175;-75
2022/12/31 08:14:50;;;;;;;4.77;4.50;;;15.60;99.90;;;;;;5049645;28;20256;-75
2022/12/31 08:17:17;;;;;;;5.63;5.13;;;15.60;99.90;;;;;;5047467;28;20182;-75
2022/12/31 08:19:44;;;;;;;4.90;4.60;;;15.70;99.90;;;;;;5030845;28;20550;-75
2022/12/31 08:22:37;;;;;;;4.97;4.77;;;15.70;99.90;;;;;;5049830;28;20190;-75
2022/12/31 08:25:22;;;;;;;4.83;4.73;;;15.80;99.90;;;;;;5052096;28;20210;-75
2022/12/31 08:28:07;;;;;;;5.63;5.37;;;16.10;99.90;;;;;;5052429;28;20174;-75
2022/12/31 08:30:57;;;;;;;5.20;5.00;;;16.40;99.90;;;;;;5053179;28;20174;-76
2022/12/31 08:33:35;;;;;;;5.73;5.47;;;16.60;99.90;;;;;;5035261;28;20185;-76
2022/12/31 08:36:35;;;;;;;4.83;4.63;;;17.00;99.90;;;;;;5053107;28;20208;-76
2022/12/31 08:39:15;;;;;;;7.97;7.57;;;17.30;99.90;;;;;;5051937;28;20263;-75
2022/12/31 08:41:43;;;;;;;7.40;7.10;;;17.60;99.90;;;;;;5052711;28;20232;-75
2022/12/31 08:44:15;;;;;;;6.20;5.90;;;17.70;99.90;;;;;;5052793;28;20214;-75
2022/12/31 08:46:53;;;;;;;7.53;7.13;;;17.60;99.90;;;;;;5045662;28;20184;-75
2022/12/31 08:49:19;;;;;;;4.90;4.43;;;17.50;99.90;;;;;;5053181;28;20644;-76
2022/12/31 08:51:45;;;;;;;4.97;4.77;;;17.30;99.90;;;;;;5052552;28;20285;-75
2022/12/31 08:54:12;;;;;;;4.63;4.40;;;17.10;99.90;;;;;;5051521;28;20679;-75
2022/12/31 08:57:04;;;;;;;4.10;3.90;;;17.00;99.90;;;;;;5052666;28;20651;-75
2022/12/31 08:59:33;;;;;;;4.30;4.20;;;16.90;99.90;;;;;;5053158;28;20273;-75
2022/12/31 09:02:37;;;;;;;4.07;3.97;;;16.90;99.90;;;;;;5034238;28;20182;-80
2022/12/31 09:05:27;;;;;;;5.13;4.93;;;16.90;99.90;;;;;;5032618;28;20215;-78
2022/12/31 09:08:32;;;;;;;4.30;4.10;;;16.80;99.90;;;;;;5024912;28;20179;-78
2022/12/31 09:11:16;;;;;;;5.40;5.17;;;16.80;99.90;;;;;;5052377;28;20186;-79
2022/12/31 09:14:23;;;;;;;8.17;7.70;;;16.80;99.90;;;;;;5050764;28;20179;-77
2022/12/31 09:17:07;;;;;;;5.90;5.37;;;16.70;99.90;;;;;;4998099;28;20186;-78
2022/12/31 09:19:33;;;;;;;6.97;6.67;;;16.70;99.90;;;;;;5033804;28;20265;-77
2022/12/31 09:21:59;;;;;;;5.07;4.83;;;16.80;99.90;;;;;;5059701;28;20206;-77
2022/12/31 09:24:25;;;;;;;11.03;9.80;;;16.80;99.90;;;;;;5033177;28;20269;-77
2022/12/31 09:27:07;;;;;;;7.80;7.20;;;16.90;99.90;;;;;;5051210;28;20190;-77
2022/12/31 09:30:03;;;;;;;3.67;3.57;;;17.00;99.90;;;;;;5052362;28;20185;-77
2022/12/31 09:32:43;;;;;;;3.93;3.83;;;17.20;99.90;;;;;;5052751;28;20183;-77
2022/12/31 09:35:47;;;;;;;4.07;3.97;;;17.40;99.90;;;;;;5052251;28;20206;-77
2022/12/31 09:38:51;;;;;;;5.27;5.10;;;18.10;99.90;;;;;;5034800;28;20195;-77
2022/12/31 09:41:35;;;;;;;5.37;5.17;;;18.90;99.90;;;;;;5054170;28;20192;-77
2022/12/31 09:44:16;;;;;;;33.57;32.07;;;19.90;99.90;;;;;;5036838;28;20260;-78
2022/12/31 09:47:03;;;;;;;25.17;24.03;;;20.60;99.90;;;;;;5052456;28;20174;-77
2022/12/31 09:49:47;;;;;;;9.63;9.23;;;20.80;99.90;;;;;;5034996;28;20204;-77
2022/12/31 09:53:04;;;;;;;6.03;5.83;;;21.00;99.90;;;;;;5052488;28;20189;-78
2022/12/31 09:55:32;;;;;;;6.90;6.63;;;21.10;99.90;;;;;;5009663;28;20312;-78
2022/12/31 09:58:10;;;;;;;7.10;6.90;;;20.90;99.90;;;;;;5053356;28;20182;-77
2022/12/31 10:00:43;;;;;;;7.37;7.00;;;20.30;99.90;;;;;;5064608;28;20241;-77
2022/12/31 10:03:26;;;;;;;8.90;8.40;;;19.80;99.90;;;;;;5058856;28;20217;-77
2022/12/31 10:05:55;;;;;;;8.23;7.87;;;20.20;99.90;;;;;;5052347;28;20198;-78
2022/12/31 10:08:46;;;;;;;10.10;9.10;;;20.50;99.90;;;;;;5069773;28;20171;-78
2022/12/31 10:11:37;;;;;;;14.07;12.87;;;20.70;99.90;;;;;;5040328;28;20277;-78
2022/12/31 10:14:14;;;;;;;11.57;10.67;;;20.70;99.90;;;;;;5032102;28;20194;-78
2022/12/31 10:16:54;;;;;;;14.83;13.97;;;21.30;99.90;;;;;;5030416;28;20706;-78
2022/12/31 10:19:41;;;;;;;5.23;5.03;;;21.90;99.90;;;;;;5037482;28;20185;-77
2022/12/31 10:22:21;;;;;;;6.40;6.10;;;21.80;99.90;;;;;;5057718;28;20208;-77
2022/12/31 10:25:05;;;;;;;8.23;7.83;;;22.20;99.90;;;;;;5055259;28;20213;-77
2022/12/31 10:27:57;;;;;;;9.23;8.83;;;22.10;99.90;;;;;;5059800;28;20301;-77
2022/12/31 10:30:23;;;;;;;11.57;11.00;;;21.90;99.90;;;;;;5033551;28;20195;-77
2022/12/31 10:33:16;;;;;;;9.93;9.43;;;22.10;99.90;;;;;;5050720;28;20189;-78
2022/12/31 10:35:42;;;;;;;12.00;11.40;;;22.10;99.90;;;;;;5053026;28;20245;-78
2022/12/31 10:38:26;;;;;;;12.13;11.63;;;21.90;99.90;;;;;;5050564;28;20212;-77
2022/12/31 10:41:25;;;;;;;11.57;11.07;;;21.70;99.90;;;;;;5052077;28;20182;-77
2022/12/31 10:44:03;;;;;;;10.05;9.63;;;21.80;99.90;;;;;;5055328;28;20218;-82
2022/12/31 10:46:50;;;;;;;9.07;8.70;;;22.00;99.90;;;;;;5056651;28;20174;-81
2022/12/31 10:49:31;;;;;;;12.13;11.65;;;22.10;99.90;;;;;;5053232;28;20189;-81
2022/12/31 10:52:27;;;;;;;12.17;11.57;;;22.40;99.90;;;;;;5024193;28;20205;-81
2022/12/31 10:55:25;;;;;;;10.73;10.32;;;22.60;99.90;;;;;;5035397;28;20703;-82
2022/12/31 10:58:25;;;;;;;9.98;9.57;;;23.20;99.90;;;;;;4947940;28;20198;-81
2022/12/31 11:01:14;;;;;;;5.43;5.13;;;23.20;99.90;;;;;;5027267;28;20182;-82
2022/12/31 11:07:09;;;;;;;6.15;5.95;;;23.90;99.90;;;;;;4967776;28;20275;-77
2022/12/31 11:09:53;;;;;;;6.53;6.30;;;24.00;99.90;;;;;;4954100;28;20193;-77
2022/12/31 11:12:28;;;;;;;9.25;8.75;;;23.80;99.90;;;;;;4971508;28;20177;-75
2022/12/31 11:15:18;;;;;;;8.00;7.45;;;23.60;99.90;;;;;;4957151;28;20262;-75
2022/12/31 11:18:22;;;;;;;6.65;6.32;;;23.50;99.90;;;;;;4950240;28;20193;-74
2022/12/31 11:21:12;;;;;;;6.25;6.00;;;23.10;99.90;;;;;;4933607;28;20229;-77
2022/12/31 11:23:50;;;;;;;5.20;4.82;;;23.20;99.90;;;;;;4953361;29;20208;-75
2022/12/31 11:26:43;;;;;;;5.70;5.50;;;23.40;99.90;;;;;;4952361;28;20567;-76
2022/12/31 11:29:51;;;;;;;8.43;7.88;;;23.80;99.90;;;;;;4970406;28;20199;-74
2022/12/31 11:32:26;;;;;;;4.88;4.68;;;23.30;99.90;;;;;;4971325;28;20180;-75
2022/12/31 11:35:07;;;;;;;6.43;6.22;;;22.80;99.90;;;;;;4972879;28;20208;-78
2022/12/31 11:37:49;;;;;;;6.17;5.77;;;22.80;99.90;;;;;;4969995;28;20536;-75
2022/12/31 11:40:23;;;;;;;6.00;5.80;;;23.20;99.90;;;;;;4951708;28;20844;-75
2022/12/31 11:43:19;;;;;;;5.55;5.35;;;23.80;99.90;;;;;;4967634;28;20552;-73
2022/12/31 11:46:27;;;;;;;4.78;4.57;;;24.30;99.90;;;;;;4966513;28;20691;-74
2022/12/31 11:49:38;;;;;;;6.30;6.00;;;23.70;99.90;;;;;;4927163;28;20186;-74
2022/12/31 11:52:43;;;;;;;5.47;5.28;;;23.80;99.90;;;;;;4952298;28;20240;-74
2022/12/31 11:55:25;;;;;;;5.60;5.40;;;24.00;99.90;;;;;;4951811;28;20209;-73
2022/12/31 11:57:52;;;;;;;5.13;4.78;;;23.60;99.90;;;;;;4971346;28;20196;-74
2022/12/31 12:00:24;;;;;;;6.13;5.93;;;24.00;99.90;;;;;;4975441;28;20192;-74
2022/12/31 12:02:58;;;;;;;5.80;5.50;;;24.10;99.90;;;;;;4975354;28;20193;-74
2022/12/31 12:05:25;;;;;;;5.53;5.18;;;23.60;99.90;;;;;;4973788;28;20224;-75
2022/12/31 12:07:52;;;;;;;5.15;4.95;;;23.60;99.90;;;;;;4972754;28;20231;-74
2022/12/31 12:10:24;;;;;;;5.25;5.05;;;23.40;99.90;;;;;;4970276;28;20181;-75
2022/12/31 12:12:53;;;;;;;4.18;4.07;;;23.50;99.90;;;;;;4955891;28;20188;-74
2022/12/31 12:15:37;;;;;;;4.45;4.35;;;23.10;99.90;;;;;;4955797;28;20201;-74
2022/12/31 12:18:12;;;;;;;5.20;4.82;;;23.40;99.90;;;;;;4953935;29;20189;-74
2022/12/31 12:20:40;;;;;;;5.15;4.95;;;23.60;99.90;;;;;;4955905;28;20285;-74
2022/12/31 12:23:15;;;;;;;5.40;5.20;;;23.80;99.90;;;;;;4955701;28;20204;-76
2022/12/31 12:25:43;;;;;;;6.00;5.80;;;24.20;99.90;;;;;;4960233;28;20267;-75
2022/12/31 12:28:18;;;;;;;4.45;4.25;;;24.40;99.90;;;;;;4956203;28;20178;-73
2022/12/31 12:30:51;;;;;;;4.15;3.85;;;24.50;99.90;;;;;;4954523;29;20185;-74
2022/12/31 12:33:19;;;;;;;4.47;4.30;;;24.50;99.90;;;;;;4955620;28;20177;-75
2022/12/31 12:35:46;;;;;;;5.22;5.05;;;24.50;99.90;;;;;;4955704;28;20209;-74
2022/12/31 12:38:16;;;;;;;3.92;3.83;;;24.30;99.40;;;;;;4967528;28;20774;-75
2022/12/31 12:40:52;;;;;;;4.22;4.03;;;23.60;99.80;;;;;;4974862;28;20192;-74
2022/12/31 12:43:25;;;;;;;4.20;4.07;;;23.10;99.90;;;;;;4973469;28;20279;-75
2022/12/31 12:45:54;;;;;;;3.60;3.50;;;22.50;99.90;;;;;;4974468;28;20224;-73
2022/12/31 12:48:40;;;;;;;4.70;4.50;;;21.90;99.90;;;;;;4973798;28;20181;-74
2022/12/31 12:51:12;;;;;;;4.23;4.13;;;21.60;99.90;;;;;;4970584;28;20210;-74
2022/12/31 12:53:49;;;;;;;3.60;3.40;;;21.20;99.90;;;;;;4961521;28;20586;-74
2022/12/31 12:56:29;;;;;;;3.03;2.93;;;21.20;99.90;;;;;;4973077;28;20209;-74
2022/12/31 12:59:09;;;;;;;6.00;5.70;;;21.00;99.90;;;;;;4972298;28;20192;-74
2022/12/31 13:02:21;;;;;;;19.20;18.30;;;20.50;99.90;;;;;;4974283;28;20879;-74
2022/12/31 13:05:25;;;;;;;23.67;22.57;;;20.50;99.90;;;;;;4973886;28;20220;-74
2022/12/31 13:08:33;;;;;;;23.10;21.80;;;21.10;99.90;;;;;;4968246;28;20639;-74
2022/12/31 13:11:14;;;;;;;27.17;25.47;;;21.30;99.90;;;;;;4970702;28;20276;-73
2022/12/31 13:14:10;;;;;;;31.43;29.47;;;21.00;99.90;;;;;;4972843;28;20267;-74
2022/12/31 13:17:02;;;;;;;25.33;24.23;;;20.90;99.90;;;;;;4972714;28;20208;-74
2022/12/31 13:19:35;;;;;;;25.50;24.33;;;20.80;99.90;;;;;;4973825;28;20185;-74
2022/12/31 13:22:25;;;;;;;24.60;23.50;;;20.70;99.90;;;;;;4967271;28;20265;-75
2022/12/31 13:25:05;;;;;;;19.10;18.20;;;20.40;99.90;;;;;;4954486;28;20226;-73
2022/12/31 13:27:37;;;;;;;18.40;17.40;;;20.30;99.90;;;;;;4954170;28;20189;-73
2022/12/31 13:30:14;;;;;;;18.80;17.93;;;20.30;99.90;;;;;;4954901;28;20269;-73
2022/12/31 13:32:46;;;;;;;19.07;18.27;;;20.30;99.90;;;;;;4954552;28;20194;-73
2022/12/31 13:35:37;;;;;;;18.27;17.37;;;20.20;99.90;;;;;;4954299;28;20321;-75